createdAt,value
2022-09-10T05:55:38.317Z,16.20
2022-09-10T05:58:17.232Z,18.60
2022-09-10T06:00:55.176Z,15.93
2022-09-10T06:03:32.222Z,15.48
2022-09-10T06:06:13.143Z,17.65
2022-09-10T06:08:57.343Z,15.48
2022-09-10T06:12:09.816Z,16.15
2022-09-10T06:14:47.643Z,15.27
2022-09-10T06:17:24.788Z,13.85
2022-09-10T06:20:02.212Z,14.57
2022-09-10T06:22:42.685Z,15.35
2022-09-10T06:25:20.297Z,14.07
2022-09-10T06:27:59.725Z,15.52
2022-09-10T06:30:36.832Z,13.93
2022-09-10T06:33:13.628Z,15.00
2022-09-10T06:35:57.832Z,14.90
2022-09-10T06:38:37.068Z,14.43
2022-09-10T06:41:17.766Z,15.45
2022-09-10T06:44:05.548Z,13.60
2022-09-10T06:49:45.137Z,14.43
2022-09-10T06:52:22.259Z,15.05
2022-09-10T06:55:06.095Z,14.10
2022-09-10T06:57:48.394Z,16.10
2022-09-10T07:00:29.293Z,13.13
2022-09-10T07:03:07.403Z,15.35
2022-09-10T07:05:44.555Z,13.25
2022-09-10T07:08:22.845Z,16.35
2022-09-10T07:11:05.605Z,13.85
2022-09-10T07:13:43.435Z,14.50
2022-09-10T07:16:25.556Z,16.58
2022-09-10T07:19:03.934Z,15.55
2022-09-10T07:21:53.795Z,15.70
2022-09-10T07:24:31.522Z,14.55
2022-09-10T07:27:18.613Z,16.38
2022-09-10T07:29:56.362Z,15.57
2022-09-10T07:32:36.694Z,14.30
2022-09-10T07:35:22.502Z,15.80
2022-09-10T07:38:00.516Z,15.30
2022-09-10T07:40:38.614Z,15.63
2022-09-10T07:43:15.874Z,16.38
2022-09-10T07:45:53.515Z,15.52
2022-09-10T07:48:33.333Z,17.48
2022-09-10T07:51:13.213Z,16.77
2022-09-10T07:53:50.977Z,15.20
2022-09-10T07:56:32.762Z,16.52
2022-09-10T07:59:11.902Z,16.55
2022-09-10T08:02:10.157Z,15.98
2022-09-10T08:04:49.934Z,15.23
2022-09-10T08:07:28.170Z,18.02
2022-09-10T08:10:05.570Z,16.58
2022-09-10T08:12:44.198Z,19.13
2022-09-10T08:15:23.702Z,17.38
2022-09-10T08:18:02.712Z,16.27
2022-09-10T08:20:43.043Z,20.05
2022-09-10T08:23:20.534Z,16.63
2022-09-10T08:25:58.944Z,18.15
2022-09-10T08:28:36.369Z,16.98
2022-09-10T08:31:17.071Z,16.95
2022-09-10T08:34:04.879Z,18.08
2022-09-10T08:36:45.638Z,20.50
2022-09-10T08:39:22.707Z,16.48
2022-09-10T08:42:04.086Z,17.40
2022-09-10T08:44:51.324Z,16.98
2022-09-10T08:47:38.390Z,19.17
2022-09-10T08:50:31.016Z,20.45
2022-09-10T08:53:26.365Z,20.48
2022-09-10T08:56:10.227Z,17.90
2022-09-10T08:58:51.604Z,18.95
2022-09-10T09:01:36.199Z,18.48
2022-09-10T09:04:19.898Z,19.63
2022-09-10T09:07:02.059Z,17.08
2022-09-10T09:09:42.651Z,17.10
2022-09-10T09:12:33.438Z,18.80
2022-09-10T09:15:17.678Z,18.25
2022-09-10T09:18:11.420Z,17.58
2022-09-10T09:23:33.352Z,18.75
2022-09-10T09:26:16.378Z,20.80
2022-09-10T09:29:05.779Z,17.95
2022-09-10T09:31:49.980Z,20.92
2022-09-10T09:34:37.477Z,19.27
2022-09-10T09:37:21.666Z,18.63
2022-09-10T09:40:16.748Z,17.90
2022-09-10T09:43:01.101Z,22.10
2022-09-10T09:45:43.625Z,24.02
2022-09-10T09:48:24.877Z,19.73
2022-09-10T09:51:04.128Z,21.42
2022-09-10T09:53:45.108Z,19.77
2022-09-10T09:56:29.698Z,21.23
2022-09-10T09:59:27.440Z,19.90
2022-09-10T10:02:14.863Z,18.67
2022-09-10T10:05:07.507Z,20.60
2022-09-10T10:07:44.617Z,22.75
2022-09-10T10:10:29.742Z,18.88
2022-09-10T10:13:06.851Z,18.98
2022-09-10T10:15:46.595Z,18.20
2022-09-10T10:18:38.969Z,18.00
2022-09-10T10:21:20.308Z,18.88
2022-09-10T10:23:57.711Z,17.65
2022-09-10T10:26:36.374Z,19.95
2022-09-10T10:29:23.614Z,22.20
2022-09-10T10:32:05.733Z,19.98
2022-09-10T10:34:55.647Z,20.58
2022-09-10T10:37:41.301Z,19.00
2022-09-10T10:40:30.834Z,20.95
2022-09-10T10:43:18.805Z,20.33
2022-09-10T10:46:07.671Z,21.08
2022-09-10T10:49:11.518Z,19.35
2022-09-10T10:52:00.211Z,20.25
2022-09-10T10:54:59.075Z,19.65
2022-09-10T10:58:01.984Z,19.00
2022-09-10T11:00:47.173Z,20.20
2022-09-10T11:03:31.038Z,19.23
2022-09-10T11:08:58.428Z,17.52
2022-09-10T11:11:40.874Z,20.83
2022-09-10T11:14:28.875Z,20.08
2022-09-10T11:17:12.898Z,18.75
2022-09-10T11:20:26.754Z,20.38
2022-09-10T11:23:11.045Z,20.42
2022-09-10T11:26:00.024Z,18.50
2022-09-10T11:28:42.153Z,18.85
2022-09-10T11:31:29.812Z,18.88
2022-09-10T11:34:14.010Z,17.98
2022-09-10T11:36:56.793Z,23.75
2022-09-10T11:39:41.407Z,19.88
2022-09-10T11:42:26.733Z,22.25
2022-09-10T11:45:19.004Z,18.67
2022-09-10T11:48:02.714Z,19.37
2022-09-10T11:53:26.423Z,18.20
2022-09-10T11:56:31.771Z,20.63
2022-09-10T11:59:25.859Z,18.17
2022-09-10T12:02:44.222Z,22.48
2022-09-10T12:05:33.393Z,19.17
2022-09-10T12:08:18.341Z,22.80
2022-09-10T12:11:10.357Z,19.70
2022-09-10T12:13:50.390Z,21.23
2022-09-10T12:16:38.102Z,21.15
2022-09-10T12:19:31.491Z,23.48
2022-09-10T12:22:11.909Z,20.85
2022-09-10T12:24:57.740Z,23.98
2022-09-10T12:27:56.593Z,19.65
2022-09-10T12:31:06.677Z,19.85
2022-09-10T12:34:21.061Z,19.92
2022-09-10T12:37:24.809Z,21.65
2022-09-10T12:40:49.980Z,22.50
2022-09-10T12:44:00.452Z,19.08
2022-09-10T12:46:45.011Z,18.20
2022-09-10T12:49:22.130Z,19.90
2022-09-10T12:52:03.344Z,20.45
2022-09-10T12:54:57.420Z,19.40
2022-09-10T12:57:47.650Z,19.33
2022-09-10T13:00:28.921Z,18.15
2022-09-10T13:03:20.560Z,17.30
2022-09-10T13:06:01.270Z,14.88
2022-09-10T13:08:44.852Z,18.08
2022-09-10T13:14:04.026Z,17.75
2022-09-10T13:16:46.359Z,16.17
2022-09-10T13:19:54.259Z,17.25
2022-09-10T13:23:01.780Z,17.42
2022-09-10T13:25:44.193Z,16.02
2022-09-10T13:29:05.301Z,17.52
2022-09-10T13:31:49.480Z,17.17
2022-09-10T13:35:08.283Z,17.55
2022-09-10T13:38:19.448Z,19.10
2022-09-10T13:42:03.789Z,14.82
2022-09-10T13:45:18.013Z,14.73
2022-09-10T13:48:04.910Z,13.68
2022-09-10T13:50:58.901Z,13.60
2022-09-10T13:53:37.640Z,13.45
2022-09-10T13:56:21.928Z,16.45
2022-09-10T13:59:04.287Z,16.42
2022-09-10T14:01:57.149Z,16.17
2022-09-10T14:04:44.393Z,18.42
2022-09-10T14:07:29.212Z,15.48
2022-09-10T14:10:09.890Z,16.58
2022-09-10T14:12:50.083Z,18.63
2022-09-10T14:15:33.016Z,15.90
2022-09-10T14:18:13.101Z,15.18
2022-09-10T14:20:53.810Z,15.10
2022-09-10T14:23:32.747Z,16.73
2022-09-10T14:26:23.812Z,15.55
2022-09-10T14:29:06.073Z,17.35
2022-09-10T14:31:44.362Z,15.57
2022-09-10T14:34:39.580Z,15.55
2022-09-10T14:37:38.538Z,17.15
2022-09-10T14:40:25.743Z,17.42
2022-09-10T14:43:19.288Z,15.40
2022-09-10T14:45:58.245Z,17.33
2022-09-10T14:48:41.884Z,17.27
2022-09-10T14:51:23.231Z,16.80
2022-09-10T14:54:03.348Z,16.25
2022-09-10T14:56:44.177Z,16.15
2022-09-10T14:59:27.246Z,16.25
2022-09-10T15:02:06.187Z,14.18
2022-09-10T15:04:43.044Z,16.50
2022-09-10T15:07:20.637Z,19.13
2022-09-10T15:10:01.966Z,14.73
2022-09-10T15:12:41.596Z,16.02
2022-09-10T15:15:20.283Z,15.82
2022-09-10T15:17:57.665Z,17.48
2022-09-10T15:20:34.922Z,15.18
2022-09-10T15:23:12.226Z,15.00
2022-09-10T15:25:55.486Z,17.23
2022-09-10T15:28:32.548Z,15.88
2022-09-10T15:31:10.700Z,17.42
2022-09-10T15:33:48.195Z,18.17
2022-09-10T15:36:26.265Z,16.98
2022-09-10T15:39:04.185Z,14.32
2022-09-10T15:41:46.357Z,16.67
2022-09-10T15:44:26.306Z,16.35
2022-09-10T15:47:03.618Z,17.08
2022-09-10T15:49:41.106Z,20.83
2022-09-10T15:52:19.374Z,16.10
2022-09-10T15:54:57.721Z,16.30
2022-09-10T15:57:40.093Z,16.92
2022-09-10T16:00:20.394Z,17.88
2022-09-10T16:02:59.102Z,18.70
2022-09-10T16:05:39.438Z,20.00
2022-09-10T16:08:16.996Z,19.60
2022-09-10T16:10:56.005Z,22.85
2022-09-10T16:13:36.918Z,23.17
2022-09-10T16:16:20.252Z,21.63
2022-09-10T16:19:01.657Z,23.60
2022-09-10T16:21:41.401Z,20.30
2022-09-10T16:24:20.095Z,19.42
2022-09-10T16:26:58.913Z,20.58
2022-09-10T16:29:40.775Z,23.92
2022-09-10T16:32:20.008Z,22.10
2022-09-10T16:34:57.645Z,21.40
2022-09-10T16:37:37.939Z,21.60
2022-09-10T16:40:21.065Z,26.13
2022-09-10T16:42:59.501Z,24.08
2022-09-10T16:45:41.980Z,22.40
2022-09-10T16:48:20.856Z,22.48
2022-09-10T16:51:05.726Z,23.40
2022-09-10T16:53:48.936Z,23.33
2022-09-10T16:56:31.311Z,29.25
2022-09-10T16:59:11.264Z,24.17
2022-09-10T17:01:55.661Z,23.50
2022-09-10T17:04:36.328Z,22.33
2022-09-10T17:07:15.296Z,24.65
2022-09-10T17:09:58.701Z,23.90
2022-09-10T17:12:39.828Z,23.33
2022-09-10T17:15:19.529Z,22.75
2022-09-10T17:17:59.605Z,25.77
2022-09-10T17:20:38.787Z,22.05
2022-09-10T17:23:19.066Z,23.92
2022-09-10T17:25:58.523Z,27.90
2022-09-10T17:28:36.320Z,25.25
2022-09-10T17:31:15.503Z,25.98
2022-09-10T17:33:55.987Z,31.42
2022-09-10T17:36:33.870Z,32.45
2022-09-10T17:39:11.102Z,27.88
2022-09-10T17:41:48.763Z,33.20
2022-09-10T17:44:27.209Z,32.67
2022-09-10T17:47:04.387Z,34.67
2022-09-10T17:49:43.955Z,30.73
2022-09-10T17:52:21.046Z,29.45
2022-09-10T17:54:59.371Z,35.03
2022-09-10T17:57:36.870Z,33.22
2022-09-10T18:00:16.154Z,40.63
2022-09-10T18:02:53.707Z,37.45
2022-09-10T18:05:34.742Z,37.30
2022-09-10T18:08:13.117Z,42.45
2022-09-10T18:10:50.055Z,33.78
2022-09-10T18:13:30.300Z,41.05
2022-09-10T18:16:14.231Z,34.28
2022-09-10T18:18:57.335Z,44.35
2022-09-10T18:21:41.401Z,39.85
2022-09-10T18:24:22.995Z,45.22
2022-09-10T18:27:04.916Z,46.42
2022-09-10T18:29:43.635Z,46.65
2022-09-10T18:32:20.984Z,43.08
2022-09-10T18:35:00.195Z,45.42
2022-09-10T18:37:40.734Z,47.85
2022-09-10T18:40:18.845Z,41.70
2022-09-10T18:42:56.044Z,41.10
2022-09-10T18:45:33.795Z,39.97
2022-09-10T18:48:11.066Z,35.47
2022-09-10T18:50:49.097Z,35.10
2022-09-10T18:53:29.315Z,32.00
2022-09-10T18:56:11.784Z,29.17
2022-09-10T18:58:54.266Z,27.70
2022-09-10T19:01:33.946Z,29.75
2022-09-10T19:04:13.645Z,28.65
2022-09-10T19:06:53.275Z,26.70
2022-09-10T19:09:34.507Z,24.98
2022-09-10T19:12:18.605Z,30.30
2022-09-10T19:14:56.144Z,30.65
2022-09-10T19:17:33.874Z,25.20
2022-09-10T19:20:13.246Z,28.38
2022-09-10T19:22:51.529Z,25.33
2022-09-10T19:25:31.667Z,26.08
2022-09-10T19:28:09.263Z,32.33
2022-09-10T19:30:46.535Z,29.40
2022-09-10T19:33:24.436Z,30.33
2022-09-10T19:36:05.704Z,29.00
2022-09-10T19:38:43.156Z,27.23
2022-09-10T19:41:25.047Z,31.48
2022-09-10T19:44:04.894Z,32.83
